Terminal Aerodrome Forecast
Issued by NWS Chicago, IL

Home | Current Version | Previous Version | Text Only | Print | Product List | Glossary Off
Versions: 1 2 3 4 5 6 7 8 9 10 11 12 13 14 15 16 17 18 19 20 21 22 23 24 25 26 27 28 29 30 31 32

000
FTUS43 KLOT 170900 AAA
TAFRFD
TAF AMD
KRFD 170900Z 1709/1806 15011G16KT P6SM FEW017 BKN150
     FM171500 16016G25KT P6SM SCT020 BKN030
     FM171900 17015G23KT P6SM -SHRA SCT010 BKN020
     FM172300 18014KT 4SM -RA OVC010
     FM180300 19012KT 3SM -RA BR OVC006=

USA.gov is the U.S. government's official web portal to all federal, state and local government web resources and services.